createdAt,value
2022-11-30T04:49:14.498Z,3.85
2022-11-30T04:51:41.138Z,3.30
2022-11-30T04:54:07.909Z,3.20
2022-11-30T04:56:34.559Z,3.38
2022-11-30T04:59:02.123Z,3.33
2022-11-30T05:01:38.046Z,3.45
2022-11-30T05:04:04.848Z,3.78
2022-11-30T05:06:31.577Z,3.70
2022-11-30T05:08:58.347Z,3.60
2022-11-30T05:11:25.025Z,4.25
2022-11-30T05:13:51.626Z,3.70
2022-11-30T05:16:18.225Z,4.18
2022-11-30T05:18:44.855Z,3.63
2022-11-30T05:21:11.776Z,3.85
2022-11-30T05:23:38.472Z,4.07
2022-11-30T05:26:05.306Z,3.72
2022-11-30T05:28:31.967Z,4.07
2022-11-30T05:31:03.827Z,4.80
2022-11-30T05:33:30.541Z,4.32
2022-11-30T05:35:57.197Z,4.55
2022-11-30T05:38:23.833Z,4.10
2022-11-30T05:40:50.561Z,4.68
2022-11-30T05:43:18.715Z,4.95
2022-11-30T05:45:45.394Z,4.63
2022-11-30T05:48:12.030Z,4.88
2022-11-30T05:50:38.611Z,4.93
2022-11-30T05:53:05.381Z,4.75
2022-11-30T05:55:33.350Z,5.45
2022-11-30T05:58:00.820Z,5.63
2022-11-30T06:00:27.464Z,5.20
2022-11-30T06:02:58.266Z,5.80
2022-11-30T06:05:26.627Z,5.25
2022-11-30T06:07:54.240Z,6.70
2022-11-30T06:10:21.222Z,6.25
2022-11-30T06:12:48.559Z,6.53
2022-11-30T06:15:15.204Z,6.88
2022-11-30T06:17:41.943Z,7.25
2022-11-30T06:20:09.091Z,6.63
2022-11-30T06:22:35.758Z,6.78
2022-11-30T06:25:02.392Z,7.25
2022-11-30T06:27:32.430Z,7.80
2022-11-30T06:29:59.143Z,8.75
2022-11-30T06:32:25.835Z,8.52
2022-11-30T06:34:52.431Z,9.70
2022-11-30T06:37:19.053Z,9.85
2022-11-30T06:42:32.936Z,9.73
2022-11-30T06:44:59.635Z,11.73
2022-11-30T06:47:27.407Z,12.18
2022-11-30T06:49:54.356Z,12.55
2022-11-30T06:52:21.078Z,12.68
2022-11-30T06:54:47.849Z,12.73
2022-11-30T06:57:14.649Z,13.07
2022-11-30T06:59:44.078Z,11.70
2022-11-30T07:02:18.231Z,11.45
2022-11-30T07:04:45.749Z,10.32
2022-11-30T07:07:12.713Z,10.40
2022-11-30T07:09:39.289Z,9.88
2022-11-30T07:12:06.476Z,9.57
2022-11-30T07:14:33.094Z,10.20
2022-11-30T07:17:01.579Z,9.85
2022-11-30T07:19:28.204Z,10.63
2022-11-30T07:21:54.798Z,9.80
2022-11-30T07:24:40.296Z,10.90
2022-11-30T07:27:06.934Z,9.75
2022-11-30T07:29:33.506Z,9.95
2022-11-30T07:32:01.360Z,9.70
2022-11-30T07:34:27.983Z,9.73
2022-11-30T07:36:54.628Z,9.32
2022-11-30T07:39:21.242Z,9.50
2022-11-30T07:41:47.921Z,9.65
2022-11-30T07:44:14.559Z,9.50
2022-11-30T07:46:41.145Z,11.13
2022-11-30T07:49:10.068Z,10.52
2022-11-30T07:51:37.305Z,11.23
2022-11-30T07:54:04.156Z,10.65
2022-11-30T07:56:30.796Z,16.50
2022-11-30T07:58:59.616Z,13.90
2022-11-30T08:01:29.759Z,10.98
2022-11-30T08:03:57.026Z,11.00
2022-11-30T08:06:26.922Z,15.77
2022-11-30T08:08:56.528Z,13.85
2022-11-30T08:11:28.211Z,14.68
2022-11-30T08:13:55.016Z,14.63
2022-11-30T08:16:24.649Z,14.10
2022-11-30T08:18:51.504Z,15.57
2022-11-30T08:21:20.595Z,14.48
2022-11-30T08:23:50.310Z,14.60
2022-11-30T08:26:23.068Z,14.20
2022-11-30T08:28:50.995Z,13.00
2022-11-30T08:31:22.098Z,13.75
2022-11-30T08:33:49.967Z,12.27
2022-11-30T08:36:19.459Z,13.27
2022-11-30T08:38:47.716Z,12.55
2022-11-30T08:41:18.879Z,11.75
2022-11-30T08:43:46.224Z,12.75
2022-11-30T08:46:51.033Z,10.60
2022-11-30T08:49:20.495Z,12.35
2022-11-30T08:54:36.404Z,9.88
2022-11-30T08:57:03.107Z,9.18
2022-11-30T08:59:31.595Z,8.38
2022-11-30T09:01:58.172Z,8.63
2022-11-30T09:04:24.828Z,8.68
2022-11-30T09:06:51.398Z,8.60
2022-11-30T09:09:18.069Z,9.70
2022-11-30T09:11:44.785Z,9.63
2022-11-30T09:14:11.669Z,8.93
2022-11-30T09:16:38.623Z,8.07
2022-11-30T09:19:05.237Z,7.10
2022-11-30T09:21:31.940Z,7.30
2022-11-30T09:23:58.767Z,5.90
2022-11-30T09:26:25.635Z,6.70
2022-11-30T09:28:54.076Z,6.32
2022-11-30T09:31:23.510Z,5.18
2022-11-30T09:33:50.131Z,4.68
2022-11-30T09:36:19.184Z,3.65
2022-11-30T09:38:46.286Z,3.83
2022-11-30T09:41:34.178Z,3.90
2022-11-30T09:44:32.783Z,3.85
2022-11-30T09:47:38.809Z,4.22
2022-11-30T09:50:16.080Z,4.15
2022-11-30T09:53:10.290Z,4.00
2022-11-30T09:55:40.895Z,4.47
2022-11-30T09:58:19.743Z,4.13
2022-11-30T10:00:46.394Z,4.82
2022-11-30T10:03:13.454Z,4.80
2022-11-30T10:05:49.850Z,4.68
2022-11-30T10:08:51.036Z,4.18
2022-11-30T10:11:23.865Z,4.10
2022-11-30T10:14:15.658Z,3.15
2022-11-30T10:16:47.507Z,2.58
2022-11-30T10:19:35.205Z,1.80
2022-11-30T10:22:12.757Z,2.25
2022-11-30T10:25:11.822Z,2.00
2022-11-30T10:27:49.757Z,1.70
2022-11-30T10:30:22.148Z,1.67
2022-11-30T10:32:56.068Z,1.80
2022-11-30T10:35:42.050Z,1.67
2022-11-30T10:38:49.258Z,2.10
2022-11-30T10:41:43.206Z,1.65
2022-11-30T10:44:24.957Z,2.20
2022-11-30T10:47:18.943Z,1.58
2022-11-30T10:49:52.622Z,1.67
2022-11-30T10:54:53.266Z,1.52
2022-11-30T10:57:21.823Z,1.45
2022-11-30T10:59:52.085Z,1.17
2022-11-30T11:02:45.276Z,2.13
2022-11-30T11:05:14.947Z,1.70
2022-11-30T11:07:49.670Z,1.60
2022-11-30T11:10:20.317Z,2.17
2022-11-30T11:12:53.642Z,2.17
2022-11-30T11:15:29.282Z,2.88
2022-11-30T11:18:22.867Z,3.17
2022-11-30T11:21:04.416Z,3.75
2022-11-30T11:23:33.137Z,2.85
2022-11-30T11:25:59.935Z,3.15
2022-11-30T11:28:26.974Z,4.25
2022-11-30T11:30:55.935Z,5.10
2022-11-30T11:33:29.643Z,5.22
2022-11-30T11:38:43.983Z,7.63
2022-11-30T11:41:25.968Z,8.00
2022-11-30T11:44:07.686Z,6.68
2022-11-30T11:46:51.850Z,6.97
2022-11-30T11:49:22.562Z,7.28
2022-11-30T11:52:19.660Z,7.72
2022-11-30T11:55:05.328Z,6.50
2022-11-30T11:57:46.201Z,5.93
2022-11-30T12:00:18.521Z,7.53
2022-11-30T12:03:20.480Z,6.43
2022-11-30T12:05:57.387Z,6.85
2022-11-30T12:08:49.808Z,6.45
2022-11-30T12:11:43.333Z,6.78
2022-11-30T12:14:15.518Z,6.15
2022-11-30T12:16:51.052Z,6.65
2022-11-30T12:19:21.613Z,7.35
2022-11-30T12:22:33.431Z,7.05
2022-11-30T12:25:32.202Z,7.68
2022-11-30T12:28:26.443Z,8.02
2022-11-30T12:34:04.886Z,7.70
2022-11-30T12:36:59.321Z,7.57
2022-11-30T12:39:38.792Z,7.97
2022-11-30T12:42:14.044Z,8.02
2022-11-30T12:44:53.465Z,7.15
2022-11-30T12:47:44.273Z,8.23
2022-11-30T12:50:22.072Z,7.07
2022-11-30T12:52:56.241Z,7.80
2022-11-30T12:55:39.872Z,7.95
2022-11-30T12:58:17.545Z,7.93
2022-11-30T13:01:00.598Z,7.82
2022-11-30T13:03:27.167Z,8.30
2022-11-30T13:06:07.205Z,8.25
2022-11-30T13:08:39.259Z,7.57
2022-11-30T13:11:17.729Z,7.30
2022-11-30T13:13:51.002Z,7.68
2022-11-30T13:16:18.775Z,7.57
2022-11-30T13:18:46.140Z,6.40
2022-11-30T13:21:26.665Z,7.00
2022-11-30T13:24:36.931Z,6.88
2022-11-30T13:27:18.229Z,7.13
2022-11-30T13:30:19.147Z,7.45
2022-11-30T13:33:01.064Z,8.13
2022-11-30T13:35:30.719Z,7.70
2022-11-30T13:38:37.001Z,9.40
2022-11-30T13:41:07.297Z,7.50
2022-11-30T13:43:49.614Z,7.95
2022-11-30T13:46:21.873Z,6.60
2022-11-30T13:48:48.803Z,7.40
2022-11-30T13:51:36.693Z,7.40
2022-11-30T13:54:41.135Z,6.78
2022-11-30T13:57:18.204Z,6.65
2022-11-30T13:59:47.119Z,4.90
2022-11-30T14:02:41.727Z,6.00
2022-11-30T14:05:17.422Z,4.10
2022-11-30T14:07:50.825Z,5.13
2022-11-30T14:10:45.799Z,4.38
2022-11-30T14:13:13.413Z,4.97
2022-11-30T14:15:40.791Z,4.75
2022-11-30T14:18:10.244Z,5.68
2022-11-30T14:20:39.358Z,6.03
2022-11-30T14:23:14.614Z,5.72
2022-11-30T14:25:51.133Z,6.50
2022-11-30T14:28:20.855Z,6.35
2022-11-30T14:30:49.244Z,5.05
2022-11-30T14:33:22.501Z,5.03
2022-11-30T14:35:56.845Z,5.93
2022-11-30T14:38:30.924Z,6.85
2022-11-30T14:40:58.045Z,8.50
2022-11-30T14:43:25.350Z,7.90
2022-11-30T14:46:06.419Z,9.68
2022-11-30T14:48:33.826Z,7.20
2022-11-30T14:51:05.089Z,7.55
2022-11-30T14:53:50.560Z,7.93
2022-11-30T14:56:35.340Z,9.18
2022-11-30T14:59:35.335Z,7.72
2022-11-30T15:02:05.773Z,7.07
2022-11-30T15:04:35.831Z,7.53
2022-11-30T15:07:03.096Z,8.55
2022-11-30T15:09:31.903Z,7.88
2022-11-30T15:11:59.000Z,7.85
2022-11-30T15:14:25.739Z,8.23
2022-11-30T15:16:54.760Z,7.13
2022-11-30T15:19:25.845Z,7.05
2022-11-30T15:21:53.734Z,7.22
2022-11-30T15:24:20.895Z,8.25
2022-11-30T15:26:56.345Z,7.07
2022-11-30T15:29:23.000Z,7.80
2022-11-30T15:31:52.371Z,7.65
2022-11-30T15:34:24.963Z,6.13
2022-11-30T15:36:56.378Z,5.50
2022-11-30T15:39:25.444Z,5.03
2022-11-30T15:41:57.410Z,5.10
2022-11-30T15:44:41.280Z,5.43
2022-11-30T15:47:34.780Z,5.25
2022-11-30T15:50:03.023Z,5.40
2022-11-30T15:52:31.100Z,5.18
2022-11-30T15:55:03.535Z,5.55
2022-11-30T15:57:59.876Z,6.85
2022-11-30T16:00:26.784Z,5.63
2022-11-30T16:03:13.305Z,4.78
2022-11-30T16:05:40.288Z,5.70
2022-11-30T16:08:16.603Z,5.30
2022-11-30T16:10:43.781Z,5.40
2022-11-30T16:13:16.202Z,6.65
2022-11-30T16:15:48.240Z,7.47
2022-11-30T16:18:23.563Z,5.75
2022-11-30T16:20:53.118Z,5.68
2022-11-30T16:23:20.667Z,6.00
2022-11-30T16:25:49.389Z,6.07
2022-11-30T16:28:17.294Z,6.13
2022-11-30T16:30:44.988Z,5.63
2022-11-30T16:33:16.679Z,6.20
2022-11-30T16:35:55.396Z,6.45
2022-11-30T16:38:23.384Z,6.32
2022-11-30T16:40:50.335Z,7.47
2022-11-30T16:43:18.530Z,7.32
2022-11-30T16:45:46.639Z,6.82
2022-11-30T16:48:14.308Z,6.60
2022-11-30T16:50:41.351Z,6.60
2022-11-30T16:53:14.866Z,7.63
2022-11-30T16:55:42.188Z,7.97
2022-11-30T16:58:08.837Z,6.40
2022-11-30T17:00:35.900Z,7.97
2022-11-30T17:03:19.767Z,6.90
2022-11-30T17:05:46.965Z,6.38
2022-11-30T17:08:13.621Z,6.75
2022-11-30T17:10:40.427Z,6.18
2022-11-30T17:13:07.038Z,6.50
2022-11-30T17:15:33.649Z,8.55
2022-11-30T17:18:00.345Z,10.23
2022-11-30T17:20:27.508Z,7.25
2022-11-30T17:22:54.130Z,6.60
2022-11-30T17:25:23.021Z,7.65
2022-11-30T17:27:50.362Z,6.70
2022-11-30T17:30:19.689Z,6.28
2022-11-30T17:32:47.011Z,7.38
2022-11-30T17:35:13.843Z,8.23
2022-11-30T17:37:40.641Z,7.55
2022-11-30T17:40:08.346Z,7.25
2022-11-30T17:42:35.028Z,7.82
2022-11-30T17:45:01.826Z,8.45
2022-11-30T17:47:28.518Z,6.93
2022-11-30T17:49:56.583Z,8.10
2022-11-30T17:52:23.570Z,8.20
2022-11-30T17:54:50.884Z,9.20
2022-11-30T17:57:17.901Z,8.75
2022-11-30T17:59:44.571Z,9.00
2022-11-30T18:02:12.257Z,9.00
2022-11-30T18:04:39.728Z,8.30
2022-11-30T18:07:06.348Z,8.63
2022-11-30T18:09:37.798Z,8.25
2022-11-30T18:12:07.650Z,8.15
2022-11-30T18:14:34.294Z,8.25
2022-11-30T18:17:00.980Z,7.18
2022-11-30T18:19:27.715Z,7.88
2022-11-30T18:21:55.380Z,7.75
2022-11-30T18:24:25.284Z,9.10
2022-11-30T18:26:52.882Z,8.82
2022-11-30T18:29:20.060Z,9.00
2022-11-30T18:31:48.268Z,9.15
2022-11-30T18:34:15.301Z,8.65
2022-11-30T18:36:42.017Z,8.68
2022-11-30T18:39:08.940Z,8.65
2022-11-30T18:41:36.417Z,8.90
2022-11-30T18:44:03.064Z,7.95
2022-11-30T18:46:30.133Z,8.38
2022-11-30T18:48:56.853Z,8.35
2022-11-30T18:51:26.139Z,9.15
2022-11-30T18:53:58.502Z,8.65
2022-11-30T18:56:26.734Z,8.32
2022-11-30T18:58:58.103Z,8.80
2022-11-30T19:01:25.476Z,8.90
2022-11-30T19:03:54.280Z,9.48
2022-11-30T19:06:21.557Z,8.68
2022-11-30T19:08:48.706Z,9.57
2022-11-30T19:11:16.474Z,9.77
2022-11-30T19:13:44.456Z,13.18
2022-11-30T19:16:14.083Z,12.30
2022-11-30T19:18:41.229Z,11.48
2022-11-30T19:21:14.171Z,11.40
2022-11-30T19:23:41.152Z,10.98
2022-11-30T19:26:09.864Z,14.07
2022-11-30T19:28:37.930Z,10.52
2022-11-30T19:31:13.353Z,11.50
2022-11-30T19:33:41.726Z,12.48
2022-11-30T19:36:12.571Z,15.50
2022-11-30T19:38:39.152Z,12.60
2022-11-30T19:41:10.693Z,11.10
2022-11-30T19:43:37.924Z,11.70
2022-11-30T19:46:08.232Z,12.70
2022-11-30T19:48:35.286Z,12.65
2022-11-30T19:51:14.938Z,13.85
2022-11-30T19:53:44.818Z,12.80
2022-11-30T19:56:16.305Z,18.88
2022-11-30T19:58:44.729Z,16.45
2022-11-30T20:01:15.461Z,21.15
2022-11-30T20:03:44.261Z,16.17
2022-11-30T20:06:11.200Z,14.43
2022-11-30T20:08:38.525Z,14.80
2022-11-30T20:11:09.526Z,15.05
2022-11-30T20:13:36.751Z,12.27
2022-11-30T20:16:17.142Z,12.15
2022-11-30T20:18:46.570Z,11.63
2022-11-30T20:21:15.782Z,11.95
2022-11-30T20:23:43.753Z,11.77
2022-11-30T20:26:14.432Z,12.73
2022-11-30T20:28:41.309Z,13.73
2022-11-30T20:31:09.617Z,13.50
2022-11-30T20:33:36.748Z,12.35
2022-11-30T20:36:09.167Z,12.30
2022-11-30T20:38:36.425Z,10.52
2022-11-30T20:41:04.017Z,10.52
2022-11-30T20:43:30.826Z,9.95
2022-11-30T20:45:57.498Z,8.98
2022-11-30T20:48:24.245Z,9.68
2022-11-30T20:51:07.599Z,9.13
2022-11-30T20:53:37.522Z,9.30
2022-11-30T20:56:04.338Z,9.82
2022-11-30T20:58:31.160Z,8.82
2022-11-30T21:00:59.855Z,8.93
2022-11-30T21:03:27.799Z,8.65
2022-11-30T21:05:54.727Z,8.20
2022-11-30T21:08:21.369Z,8.68
2022-11-30T21:10:48.013Z,8.68
2022-11-30T21:13:15.129Z,8.63
2022-11-30T21:15:41.866Z,8.82
2022-11-30T21:18:08.554Z,8.68
2022-11-30T21:20:35.139Z,8.32
2022-11-30T21:23:01.747Z,9.32
2022-11-30T21:25:28.338Z,8.88
2022-11-30T21:27:54.909Z,7.88
2022-11-30T21:30:21.531Z,8.73
2022-11-30T21:32:48.155Z,9.57
2022-11-30T21:35:14.865Z,9.55
2022-11-30T21:37:41.509Z,8.57
2022-11-30T21:40:08.810Z,9.25
2022-11-30T21:42:35.409Z,8.07
2022-11-30T21:45:02.003Z,8.82
2022-11-30T21:47:32.494Z,9.05
2022-11-30T21:49:59.640Z,8.85
2022-11-30T21:52:26.624Z,8.40
2022-11-30T21:54:53.775Z,9.32
2022-11-30T21:57:21.928Z,8.90
2022-11-30T21:59:49.027Z,9.43
2022-11-30T22:02:15.819Z,9.38
2022-11-30T22:04:42.454Z,9.65
2022-11-30T22:07:12.175Z,9.18
2022-11-30T22:09:38.960Z,9.02
2022-11-30T22:12:05.677Z,8.80
2022-11-30T22:14:32.793Z,8.95
2022-11-30T22:16:59.387Z,9.05
2022-11-30T22:19:25.984Z,9.02
2022-11-30T22:21:52.560Z,9.73
2022-11-30T22:24:19.346Z,9.50
2022-11-30T22:26:46.821Z,8.70
2022-11-30T22:29:19.426Z,9.20
2022-11-30T22:31:47.972Z,8.93
2022-11-30T22:34:14.903Z,9.50
2022-11-30T22:36:42.904Z,8.85
2022-11-30T22:39:19.638Z,9.95
2022-11-30T22:41:53.107Z,8.93
2022-11-30T22:44:21.877Z,8.90
2022-11-30T22:46:48.637Z,9.57
2022-11-30T22:49:21.603Z,9.80
2022-11-30T22:51:49.049Z,8.32
2022-11-30T22:54:15.746Z,9.07
2022-11-30T22:56:42.474Z,8.77
2022-11-30T22:59:11.955Z,9.80
2022-11-30T23:01:44.200Z,9.38
2022-11-30T23:04:18.769Z,9.40
2022-11-30T23:06:47.074Z,9.38
2022-11-30T23:09:19.555Z,9.43
2022-11-30T23:11:46.424Z,9.48
2022-11-30T23:14:13.312Z,9.25
2022-11-30T23:16:40.697Z,10.65
2022-11-30T23:19:08.035Z,10.05
2022-11-30T23:21:41.365Z,10.30
2022-11-30T23:24:13.771Z,10.23
2022-11-30T23:26:41.200Z,11.23
2022-11-30T23:29:11.862Z,10.55
2022-11-30T23:31:40.576Z,10.07
2022-11-30T23:34:09.858Z,9.45
2022-11-30T23:36:36.843Z,10.55
2022-11-30T23:39:10.238Z,10.23
2022-11-30T23:41:37.324Z,10.80
2022-11-30T23:44:04.294Z,10.90
2022-11-30T23:46:31.065Z,10.13
2022-11-30T23:48:57.881Z,11.13
2022-11-30T23:51:24.928Z,10.50
2022-11-30T23:53:51.692Z,11.32
2022-11-30T23:56:21.151Z,11.50
2022-11-30T23:58:48.213Z,10.82
